createdAt,value
2023-01-25T00:00:47.137Z,100918.50
2023-01-25T00:03:14.103Z,100899.38
2023-01-25T00:05:40.959Z,100913.53
2023-01-25T00:08:07.970Z,100917.47
2023-01-25T00:10:51.780Z,100910.63
2023-01-25T00:13:18.577Z,100904.19
2023-01-25T00:15:45.327Z,100914.00
2023-01-25T00:18:12.156Z,100906.25
2023-01-25T00:20:39.137Z,100908.34
2023-01-25T00:23:05.935Z,100906.53
2023-01-25T00:25:32.839Z,100905.25
2023-01-25T00:27:59.647Z,100895.88
2023-01-25T00:30:26.451Z,100905.19
2023-01-25T00:32:58.902Z,100907.34
2023-01-25T00:35:31.598Z,100873.47
2023-01-25T00:38:02.956Z,100902.22
2023-01-25T00:40:29.941Z,100907.81
2023-01-25T00:43:00.869Z,100906.59
2023-01-25T00:45:27.815Z,100898.47
2023-01-25T00:47:56.495Z,100900.13
2023-01-25T00:50:23.352Z,100894.63
2023-01-25T00:52:50.187Z,100888.19
2023-01-25T00:55:17.150Z,100876.34
2023-01-25T00:57:44.017Z,100872.22
2023-01-25T01:00:11.827Z,100893.81
2023-01-25T01:02:38.970Z,100897.97
2023-01-25T01:05:06.834Z,100907.16
2023-01-25T01:07:34.728Z,100891.75
2023-01-25T01:10:01.580Z,100883.00
2023-01-25T01:12:28.435Z,100896.06
2023-01-25T01:14:55.465Z,100880.06
2023-01-25T01:17:22.388Z,100898.25
2023-01-25T01:19:49.329Z,100892.66
2023-01-25T01:22:16.158Z,100884.50
2023-01-25T01:24:43.331Z,100892.75
2023-01-25T01:27:10.322Z,100886.88
2023-01-25T01:29:37.185Z,100880.72
2023-01-25T01:32:04.246Z,100887.81
2023-01-25T01:34:31.133Z,100884.72
2023-01-25T01:36:58.123Z,100870.84
2023-01-25T01:39:25.141Z,100867.06
2023-01-25T01:41:52.455Z,100883.22
2023-01-25T01:44:24.352Z,100877.63
2023-01-25T01:46:59.222Z,100879.88
2023-01-25T01:49:32.779Z,100879.09
2023-01-25T01:52:20.803Z,100869.75
2023-01-25T01:54:59.494Z,100861.81
2023-01-25T01:57:41.832Z,100876.84
2023-01-25T02:00:19.766Z,100869.34
2023-01-25T02:02:50.190Z,100863.97
2023-01-25T02:05:41.624Z,100868.97
2023-01-25T02:08:13.593Z,100859.31
2023-01-25T02:10:41.080Z,100870.56
2023-01-25T02:13:08.136Z,100866.13
2023-01-25T02:15:42.776Z,100865.72
2023-01-25T02:18:11.562Z,100873.44
2023-01-25T02:20:42.551Z,100872.19
2023-01-25T02:23:18.346Z,100864.25
2023-01-25T02:25:45.565Z,100869.44
2023-01-25T02:28:28.279Z,100868.59
2023-01-25T02:30:55.179Z,100849.22
2023-01-25T02:33:25.431Z,100857.41
2023-01-25T02:36:26.892Z,100863.00
2023-01-25T02:38:55.666Z,100870.97
2023-01-25T02:41:35.723Z,100874.34
2023-01-25T02:44:06.669Z,100862.69
2023-01-25T02:46:37.255Z,100859.59
2023-01-25T02:49:06.102Z,100835.84
2023-01-25T02:51:36.230Z,100854.56
2023-01-25T02:54:05.512Z,100860.56
2023-01-25T02:56:33.006Z,100871.22
2023-01-25T02:59:05.503Z,100846.63
2023-01-25T03:01:39.030Z,100845.59
2023-01-25T03:04:07.458Z,100858.25
2023-01-25T03:06:36.371Z,100845.53
2023-01-25T03:09:05.882Z,100852.19
2023-01-25T03:11:33.498Z,100852.75
2023-01-25T03:14:00.914Z,100857.59
2023-01-25T03:16:31.400Z,100851.97
2023-01-25T03:18:58.984Z,100867.81
2023-01-25T03:21:27.084Z,100859.91
2023-01-25T03:24:01.974Z,100851.63
2023-01-25T03:26:55.920Z,100862.44
2023-01-25T03:29:28.138Z,100857.22
2023-01-25T03:31:55.173Z,100866.19
2023-01-25T03:34:22.251Z,100858.91
2023-01-25T03:36:49.299Z,100854.09
2023-01-25T03:39:16.270Z,100868.53
2023-01-25T03:41:43.621Z,100864.97
2023-01-25T03:44:13.006Z,100866.06
2023-01-25T03:46:42.286Z,100872.31
2023-01-25T03:49:09.647Z,100877.66
2023-01-25T03:51:37.004Z,100871.84
2023-01-25T03:54:04.685Z,100856.13
2023-01-25T03:56:34.420Z,100855.94
2023-01-25T03:59:07.322Z,100872.66
2023-01-25T04:01:34.976Z,100861.41
2023-01-25T04:04:03.214Z,100865.13
2023-01-25T04:06:30.382Z,100862.41
2023-01-25T04:08:57.545Z,100863.84
2023-01-25T04:11:26.590Z,100853.41
2023-01-25T04:13:54.100Z,100861.06
2023-01-25T04:16:23.344Z,100856.59
2023-01-25T04:19:10.407Z,100872.81
2023-01-25T04:21:39.217Z,100847.03
2023-01-25T04:24:06.337Z,100854.13
2023-01-25T04:26:37.146Z,100874.34
2023-01-25T04:29:04.310Z,100867.47
2023-01-25T04:31:31.517Z,100870.53
2023-01-25T04:33:58.592Z,100865.91
2023-01-25T04:36:25.689Z,100871.56
2023-01-25T04:38:52.582Z,100880.53
2023-01-25T04:41:19.839Z,100878.38
2023-01-25T04:43:46.594Z,100875.84
2023-01-25T04:46:15.200Z,100877.31
2023-01-25T04:48:42.438Z,100873.38
2023-01-25T04:51:09.559Z,100875.00
2023-01-25T04:53:36.726Z,100869.06
2023-01-25T04:56:06.755Z,100871.03
2023-01-25T04:58:41.743Z,100871.41
2023-01-25T05:01:08.952Z,100862.66
2023-01-25T05:03:35.985Z,100867.25
2023-01-25T05:06:04.364Z,100871.63
2023-01-25T05:08:31.451Z,100868.09
2023-01-25T05:11:01.391Z,100875.13
2023-01-25T05:14:00.692Z,100846.47
2023-01-25T05:16:31.436Z,100856.19
2023-01-25T05:18:59.080Z,100861.00
2023-01-25T05:22:00.164Z,100871.34
2023-01-25T05:24:45.176Z,100874.31
2023-01-25T05:27:17.670Z,100870.38
2023-01-25T05:29:53.195Z,100862.44
2023-01-25T05:32:28.461Z,100870.97
2023-01-25T05:34:56.121Z,100873.50
2023-01-25T05:37:24.494Z,100866.63
2023-01-25T05:39:58.289Z,100875.19
2023-01-25T05:42:26.011Z,100874.75
2023-01-25T05:44:54.791Z,100856.88
2023-01-25T05:47:21.671Z,100883.47
2023-01-25T05:49:48.491Z,100868.44
2023-01-25T05:52:22.080Z,100879.00
2023-01-25T05:54:49.670Z,100887.94
2023-01-25T05:57:17.454Z,100878.78
2023-01-25T05:59:44.821Z,100860.38
2023-01-25T06:02:14.233Z,100880.31
2023-01-25T06:04:43.008Z,100873.50
2023-01-25T06:07:10.512Z,100885.59
2023-01-25T06:09:37.992Z,100886.00
2023-01-25T06:12:06.504Z,100872.94
2023-01-25T06:14:33.977Z,100888.53
2023-01-25T06:17:02.640Z,100889.31
2023-01-25T06:20:01.829Z,100884.44
2023-01-25T06:22:36.855Z,100891.94
2023-01-25T06:25:04.126Z,100901.69
2023-01-25T06:27:31.166Z,100900.09
2023-01-25T06:29:57.951Z,100892.25
2023-01-25T06:32:26.066Z,100894.94
2023-01-25T06:34:53.323Z,100894.25
2023-01-25T06:37:23.027Z,100886.28
2023-01-25T06:39:50.263Z,100891.50
2023-01-25T06:42:17.295Z,100882.41
2023-01-25T06:44:44.142Z,100894.22
2023-01-25T06:47:12.370Z,100890.44
2023-01-25T06:49:39.373Z,100893.81
2023-01-25T06:52:06.209Z,100898.38
2023-01-25T06:54:33.976Z,100889.25
2023-01-25T06:57:01.105Z,100882.91
2023-01-25T06:59:27.979Z,100895.22
2023-01-25T07:01:54.951Z,100892.09
2023-01-25T07:04:21.899Z,100901.69
2023-01-25T07:06:48.794Z,100906.03
2023-01-25T07:09:15.903Z,100893.78
2023-01-25T07:11:42.923Z,100892.03
2023-01-25T07:14:09.688Z,100900.34
2023-01-25T07:16:37.302Z,100897.81
2023-01-25T07:19:10.662Z,100892.25
2023-01-25T07:21:37.723Z,100898.50
2023-01-25T07:24:05.471Z,100896.00
2023-01-25T07:26:32.991Z,100908.09
2023-01-25T07:29:00.118Z,100908.31
2023-01-25T07:31:28.054Z,100899.09
2023-01-25T07:33:56.704Z,100907.34
2023-01-25T07:36:24.756Z,100918.25
2023-01-25T07:38:56.367Z,100906.00
2023-01-25T07:41:24.882Z,100901.69
2023-01-25T07:43:53.214Z,100914.56
2023-01-25T07:46:39.486Z,100913.47
2023-01-25T07:49:06.466Z,100883.31
2023-01-25T07:51:33.536Z,100902.88
2023-01-25T07:54:02.595Z,100915.78
2023-01-25T07:56:34.880Z,100906.00
2023-01-25T07:59:08.366Z,100896.63
2023-01-25T08:01:37.008Z,100917.03
2023-01-25T08:04:05.396Z,100911.16
2023-01-25T08:06:39.248Z,100896.81
2023-01-25T08:09:13.740Z,100912.47
2023-01-25T08:11:42.108Z,100917.19
2023-01-25T08:14:09.250Z,100912.34
2023-01-25T08:16:36.074Z,100915.72
2023-01-25T08:19:04.182Z,100896.88
2023-01-25T08:21:34.186Z,100912.47
2023-01-25T08:24:04.382Z,100899.44
2023-01-25T08:26:31.657Z,100897.75
2023-01-25T08:28:58.722Z,100897.94
2023-01-25T08:31:28.731Z,100901.44
2023-01-25T08:33:56.348Z,100897.41
2023-01-25T08:36:24.507Z,100896.88
2023-01-25T08:38:56.520Z,100864.75
2023-01-25T08:41:24.448Z,100881.09
2023-01-25T08:43:53.795Z,100885.75
2023-01-25T08:46:21.945Z,100880.53
2023-01-25T08:48:53.113Z,100880.69
2023-01-25T08:51:19.889Z,100877.34
2023-01-25T08:53:46.978Z,100878.09
2023-01-25T08:56:15.525Z,100871.25
2023-01-25T08:58:45.175Z,100883.41
2023-01-25T09:01:14.635Z,100885.13
2023-01-25T09:03:44.858Z,100883.03
2023-01-25T09:06:12.776Z,100871.44
2023-01-25T09:08:40.044Z,100861.66
2023-01-25T09:11:12.683Z,100870.41
2023-01-25T09:13:43.785Z,100875.28
2023-01-25T09:16:16.079Z,100853.50
2023-01-25T09:18:44.984Z,100849.44
2023-01-25T09:21:16.942Z,100856.25
2023-01-25T09:23:51.061Z,100833.31
2023-01-25T09:26:25.155Z,100832.72
2023-01-25T09:28:53.858Z,100825.97
2023-01-25T09:31:25.443Z,100820.78
2023-01-25T09:34:15.786Z,100826.09
2023-01-25T09:36:42.679Z,100826.69
2023-01-25T09:39:14.207Z,100838.63
2023-01-25T09:41:47.263Z,100831.84
2023-01-25T09:44:23.113Z,100832.00
2023-01-25T09:46:54.205Z,100830.53
2023-01-25T09:49:55.041Z,100830.78
2023-01-25T09:52:33.944Z,100831.22
2023-01-25T09:55:02.560Z,100824.06
2023-01-25T09:57:38.256Z,100824.06
2023-01-25T10:00:49.561Z,100826.69
2023-01-25T10:03:19.497Z,100811.94
2023-01-25T10:05:59.840Z,100821.63
2023-01-25T10:08:33.001Z,100804.94
2023-01-25T10:11:29.137Z,100816.72
2023-01-25T10:13:58.265Z,100801.03
2023-01-25T10:16:46.546Z,100806.09
2023-01-25T10:19:13.512Z,100799.44
2023-01-25T10:21:45.428Z,100795.00
2023-01-25T10:24:43.152Z,100791.53
2023-01-25T10:27:32.512Z,100702.41
2023-01-25T10:30:02.951Z,100781.94
2023-01-25T10:32:35.862Z,100779.13
2023-01-25T10:35:33.257Z,100759.06
2023-01-25T10:38:07.373Z,100775.50
2023-01-25T10:40:43.466Z,100773.78
2023-01-25T10:43:20.877Z,100726.41
2023-01-25T10:45:50.319Z,100749.56
2023-01-25T10:48:29.087Z,100738.41
2023-01-25T10:50:57.816Z,100735.91
2023-01-25T10:53:32.728Z,100747.16
2023-01-25T10:56:11.663Z,100732.28
2023-01-25T10:58:46.171Z,100726.91
2023-01-25T11:01:29.204Z,100725.19
2023-01-25T11:03:57.681Z,100727.69
2023-01-25T11:06:36.770Z,100712.97
2023-01-25T11:09:21.793Z,100715.19
2023-01-25T11:11:57.046Z,100701.69
2023-01-25T11:14:29.107Z,100707.44
2023-01-25T11:16:58.100Z,100709.56
2023-01-25T11:19:35.652Z,100684.81
2023-01-25T11:22:06.449Z,100692.06
2023-01-25T11:24:36.692Z,100687.81
2023-01-25T11:27:24.588Z,100690.06
2023-01-25T11:30:16.106Z,100686.91
2023-01-25T11:32:43.058Z,100690.31
2023-01-25T11:35:23.116Z,100681.84
2023-01-25T11:38:16.585Z,100677.53
2023-01-25T11:41:13.006Z,100671.91
2023-01-25T11:43:57.829Z,100670.75
2023-01-25T11:46:43.362Z,100666.75
2023-01-25T11:49:19.315Z,100665.19
2023-01-25T11:51:46.801Z,100659.03
2023-01-25T11:54:25.659Z,100659.91
2023-01-25T11:57:06.660Z,100663.88
2023-01-25T11:59:55.638Z,100662.78
2023-01-25T12:02:46.974Z,100656.41
2023-01-25T12:05:45.075Z,100657.25
2023-01-25T12:08:11.905Z,100657.72
2023-01-25T12:11:10.947Z,100648.41
2023-01-25T12:13:54.188Z,100643.44
2023-01-25T12:16:33.057Z,100649.09
2023-01-25T12:19:32.199Z,100648.63
2023-01-25T12:22:08.240Z,100650.81
2023-01-25T12:24:58.749Z,100650.06
2023-01-25T12:27:31.450Z,100647.34
2023-01-25T12:30:12.944Z,100647.22
2023-01-25T12:32:43.674Z,100641.78
2023-01-25T12:35:34.517Z,100629.47
2023-01-25T12:38:11.136Z,100632.72
2023-01-25T12:41:13.179Z,100634.97
2023-01-25T12:43:50.566Z,100626.75
2023-01-25T12:46:39.583Z,100639.38
2023-01-25T12:49:15.734Z,100623.69
2023-01-25T12:51:44.482Z,100605.13
2023-01-25T12:54:25.611Z,100606.03
2023-01-25T12:57:18.847Z,100633.56
2023-01-25T12:59:57.347Z,100631.38
2023-01-25T13:02:44.486Z,100623.91
2023-01-25T13:05:39.455Z,100609.06
2023-01-25T13:08:35.052Z,100635.00
2023-01-25T13:11:25.067Z,100619.16
2023-01-25T13:13:52.053Z,100629.81
2023-01-25T13:16:31.196Z,100632.44
2023-01-25T13:18:58.777Z,100619.75
2023-01-25T13:21:46.618Z,100622.16
2023-01-25T13:24:32.711Z,100623.44
2023-01-25T13:26:59.581Z,100619.44
2023-01-25T13:29:32.538Z,100614.56
2023-01-25T13:32:00.872Z,100601.44
2023-01-25T13:34:37.456Z,100611.38
2023-01-25T13:37:18.976Z,100608.91
2023-01-25T13:40:06.794Z,100598.50
2023-01-25T13:42:37.029Z,100616.22
2023-01-25T13:45:18.725Z,100605.13
2023-01-25T13:48:01.580Z,100602.91
2023-01-25T13:50:33.597Z,100606.31
2023-01-25T13:53:01.950Z,100605.25
2023-01-25T13:55:37.494Z,100600.75
2023-01-25T13:58:31.028Z,100609.50
2023-01-25T14:01:02.280Z,100603.22
2023-01-25T14:03:31.659Z,100608.91
2023-01-25T14:06:02.525Z,100597.09
2023-01-25T14:08:31.126Z,100602.25
2023-01-25T14:10:58.647Z,100603.56
2023-01-25T14:13:25.713Z,100593.09
2023-01-25T14:16:00.371Z,100596.47
2023-01-25T14:18:35.774Z,100587.34
2023-01-25T14:21:20.077Z,100602.72
2023-01-25T14:23:48.741Z,100610.28
2023-01-25T14:26:26.486Z,100580.50
2023-01-25T14:29:01.614Z,100572.25
2023-01-25T14:31:35.433Z,100583.56
2023-01-25T14:34:04.933Z,100575.28
2023-01-25T14:36:36.677Z,100564.41
2023-01-25T14:39:16.882Z,100568.88
2023-01-25T14:41:59.201Z,100566.09
2023-01-25T14:44:29.085Z,100587.34
2023-01-25T14:47:33.686Z,100584.31
2023-01-25T14:50:35.533Z,100588.31
2023-01-25T14:53:23.522Z,100586.38
2023-01-25T14:55:51.233Z,100593.25
2023-01-25T14:58:22.907Z,100584.16
2023-01-25T15:00:54.508Z,100577.31
2023-01-25T15:03:22.711Z,100575.28
2023-01-25T15:05:49.656Z,100579.06
2023-01-25T15:08:29.133Z,100570.97
2023-01-25T15:11:18.722Z,100583.06
2023-01-25T15:13:45.827Z,100604.69
2023-01-25T15:16:13.191Z,100601.84
2023-01-25T15:18:44.040Z,100598.66
2023-01-25T15:21:13.215Z,100591.81
2023-01-25T15:23:42.344Z,100600.41
2023-01-25T15:26:29.992Z,100591.34
2023-01-25T15:29:03.500Z,100577.59
2023-01-25T15:31:37.028Z,100572.41
2023-01-25T15:34:04.756Z,100596.88
2023-01-25T15:36:33.506Z,100579.88
2023-01-25T15:39:01.392Z,100584.00
2023-01-25T15:41:28.618Z,100564.72
2023-01-25T15:43:55.498Z,100595.81
2023-01-25T15:46:26.877Z,100591.81
2023-01-25T15:48:54.774Z,100586.00
2023-01-25T15:51:21.675Z,100589.22
2023-01-25T15:53:48.563Z,100596.84
2023-01-25T15:56:21.323Z,100602.28
2023-01-25T15:58:52.280Z,100601.00
2023-01-25T16:01:21.067Z,100590.44
2023-01-25T16:03:47.908Z,100594.81
2023-01-25T16:06:18.027Z,100605.50
2023-01-25T16:08:44.933Z,100598.13
2023-01-25T16:11:13.009Z,100610.34
2023-01-25T16:13:41.584Z,100585.16
2023-01-25T16:16:18.194Z,100604.38
2023-01-25T16:18:45.120Z,100604.63
2023-01-25T16:21:12.644Z,100593.47
2023-01-25T16:23:40.582Z,100601.00
2023-01-25T16:26:18.937Z,100555.78
2023-01-25T16:28:45.742Z,100598.28
2023-01-25T16:31:30.850Z,100582.22
2023-01-25T16:33:58.807Z,100581.53
2023-01-25T16:36:26.095Z,100592.19
2023-01-25T16:38:53.441Z,100588.97
2023-01-25T16:41:20.424Z,100579.63
2023-01-25T16:43:53.921Z,100591.81
2023-01-25T16:46:23.368Z,100556.63
2023-01-25T16:48:52.519Z,100595.94
2023-01-25T16:51:24.788Z,100585.31
2023-01-25T16:53:55.649Z,100582.84
2023-01-25T16:56:33.307Z,100581.22
2023-01-25T16:59:05.168Z,100569.63
2023-01-25T17:01:32.462Z,100574.75
2023-01-25T17:03:59.411Z,100572.03
2023-01-25T17:06:33.248Z,100577.00
2023-01-25T17:09:12.596Z,100574.06
2023-01-25T17:11:43.987Z,100570.44
2023-01-25T17:14:15.453Z,100567.34
2023-01-25T17:16:42.939Z,100560.84
2023-01-25T17:19:13.414Z,100565.84
2023-01-25T17:21:40.404Z,100551.44
2023-01-25T17:24:08.160Z,100555.69
2023-01-25T17:26:35.339Z,100564.41
2023-01-25T17:29:02.861Z,100557.34
2023-01-25T17:31:33.557Z,100536.97
2023-01-25T17:34:06.662Z,100567.13
2023-01-25T17:36:33.785Z,100559.19
2023-01-25T17:39:06.277Z,100561.91
2023-01-25T17:41:33.644Z,100543.50
2023-01-25T17:44:04.004Z,100540.44
2023-01-25T17:46:37.410Z,100524.00
2023-01-25T17:49:12.268Z,100540.06
2023-01-25T17:51:39.352Z,100524.44
2023-01-25T17:54:06.713Z,100544.56
2023-01-25T17:56:39.518Z,100544.56
2023-01-25T17:59:09.035Z,100538.78
2023-01-25T18:01:35.954Z,100523.41
2023-01-25T18:07:19.353Z,100537.56
2023-01-25T18:09:46.193Z,100510.59
2023-01-25T18:12:12.978Z,100507.94
2023-01-25T18:14:39.988Z,100531.59
2023-01-25T18:17:13.139Z,100526.72
2023-01-25T18:19:40.100Z,100517.88
2023-01-25T18:22:07.221Z,100520.91
2023-01-25T18:24:35.720Z,100526.56
2023-01-25T18:27:21.992Z,100529.41
2023-01-25T18:30:03.698Z,100530.25
2023-01-25T18:32:32.916Z,100530.94
2023-01-25T18:34:59.928Z,100514.41
2023-01-25T18:37:33.427Z,100515.03
2023-01-25T18:40:00.514Z,100509.22
2023-01-25T18:42:28.413Z,100504.84
2023-01-25T18:44:55.380Z,100513.63
2023-01-25T18:47:23.293Z,100511.84
2023-01-25T18:49:52.898Z,100508.31
2023-01-25T18:52:23.016Z,100513.28
2023-01-25T18:54:51.281Z,100511.25
2023-01-25T18:57:18.609Z,100513.13
2023-01-25T18:59:45.948Z,100497.53
2023-01-25T19:02:15.138Z,100476.59
2023-01-25T19:04:42.404Z,100483.22
2023-01-25T19:07:09.596Z,100491.50
2023-01-25T19:09:37.330Z,100491.38
2023-01-25T19:12:04.967Z,100493.13
2023-01-25T19:14:31.918Z,100485.47
2023-01-25T19:16:58.888Z,100494.69
2023-01-25T19:19:32.333Z,100492.94
2023-01-25T19:22:00.691Z,100488.50
2023-01-25T19:24:28.279Z,100485.94
2023-01-25T19:26:55.655Z,100492.19
2023-01-25T19:29:22.990Z,100455.66
2023-01-25T19:31:51.170Z,100484.44
2023-01-25T19:34:19.102Z,100490.44
2023-01-25T19:36:50.537Z,100485.03
2023-01-25T19:39:18.075Z,100470.84
2023-01-25T19:41:45.151Z,100472.19
2023-01-25T19:44:14.064Z,100466.00
2023-01-25T19:46:41.841Z,100464.25
2023-01-25T19:49:11.912Z,100479.00
2023-01-25T19:51:43.096Z,100462.09
2023-01-25T19:54:17.010Z,100441.91
2023-01-25T19:56:46.584Z,100469.66
2023-01-25T19:59:16.895Z,100460.91
2023-01-25T20:01:45.281Z,100468.00
2023-01-25T20:04:19.806Z,100461.28
2023-01-25T20:06:47.238Z,100474.16
2023-01-25T20:09:15.624Z,100473.47
2023-01-25T20:11:43.090Z,100477.47
2023-01-25T20:14:12.138Z,100470.84
2023-01-25T20:16:40.196Z,100478.66
2023-01-25T20:19:13.258Z,100477.00
2023-01-25T20:21:41.000Z,100476.56
2023-01-25T20:24:10.193Z,100464.63
2023-01-25T20:26:39.319Z,100465.47
2023-01-25T20:29:07.652Z,100443.09
2023-01-25T20:31:37.606Z,100453.78
2023-01-25T20:34:07.211Z,100448.22
2023-01-25T20:36:38.223Z,100449.25
2023-01-25T20:39:06.949Z,100444.31
2023-01-25T20:41:34.406Z,100439.47
2023-01-25T20:44:10.080Z,100429.22
2023-01-25T20:46:39.121Z,100441.13
2023-01-25T20:49:11.282Z,100412.38
2023-01-25T20:51:38.131Z,100440.66
2023-01-25T20:54:04.933Z,100427.31
2023-01-25T20:56:32.296Z,100440.53
2023-01-25T20:58:59.109Z,100432.84
2023-01-25T21:01:29.748Z,100431.19
2023-01-25T21:03:59.573Z,100409.94
2023-01-25T21:06:29.008Z,100404.50
2023-01-25T21:08:56.032Z,100396.22
2023-01-25T21:11:26.332Z,100414.81
2023-01-25T21:13:57.052Z,100411.72
2023-01-25T21:16:24.302Z,100401.56
2023-01-25T21:18:57.557Z,100414.22
2023-01-25T21:21:29.635Z,100401.09
2023-01-25T21:24:00.138Z,100401.78
2023-01-25T21:26:29.747Z,100405.66
2023-01-25T21:28:59.179Z,100386.03
2023-01-25T21:31:28.764Z,100393.44
2023-01-25T21:33:56.089Z,100399.22
2023-01-25T21:36:23.073Z,100379.22
2023-01-25T21:38:51.476Z,100378.53
2023-01-25T21:41:20.519Z,100385.75
2023-01-25T21:44:07.214Z,100382.59
2023-01-25T21:46:34.559Z,100379.50
2023-01-25T21:49:22.165Z,100379.66
2023-01-25T21:51:51.299Z,100365.25
2023-01-25T21:54:29.108Z,100373.34
2023-01-25T21:56:57.514Z,100372.06
2023-01-25T21:59:24.500Z,100362.28
2023-01-25T22:01:52.132Z,100369.03
2023-01-25T22:04:20.672Z,100352.84
2023-01-25T22:06:50.737Z,100351.09
2023-01-25T22:09:17.768Z,100376.56
2023-01-25T22:11:48.399Z,100340.56
2023-01-25T22:14:15.806Z,100362.72
2023-01-25T22:16:42.794Z,100366.84
2023-01-25T22:19:09.756Z,100352.88
2023-01-25T22:21:36.647Z,100362.94
2023-01-25T22:24:05.614Z,100353.16
2023-01-25T22:26:43.188Z,100331.94
2023-01-25T22:29:10.025Z,100348.13
2023-01-25T22:31:37.284Z,100334.31
2023-01-25T22:34:04.280Z,100325.56
2023-01-25T22:36:31.940Z,100337.50
2023-01-25T22:39:00.448Z,100328.16
2023-01-25T22:41:32.184Z,100326.41
2023-01-25T22:43:58.997Z,100324.63
2023-01-25T22:46:28.177Z,100313.78
2023-01-25T22:48:55.812Z,100318.19
2023-01-25T22:51:25.680Z,100310.63
2023-01-25T22:53:53.667Z,100324.44
2023-01-25T22:56:23.053Z,100324.44
2023-01-25T22:58:50.423Z,100321.84
2023-01-25T23:01:23.522Z,100316.25
2023-01-25T23:03:51.014Z,100308.72
2023-01-25T23:06:23.029Z,100328.66
2023-01-25T23:08:50.187Z,100312.63
2023-01-25T23:11:19.617Z,100321.22
2023-01-25T23:14:06.006Z,100310.38
2023-01-25T23:16:33.793Z,100302.47
2023-01-25T23:19:01.523Z,100312.13
2023-01-25T23:21:30.007Z,100308.81
2023-01-25T23:24:00.799Z,100305.41
2023-01-25T23:26:29.296Z,100289.97
2023-01-25T23:28:57.714Z,100285.34
2023-01-25T23:31:26.340Z,100281.84
2023-01-25T23:34:01.772Z,100286.91
2023-01-25T23:36:32.228Z,100287.72
2023-01-25T23:38:59.324Z,100277.59
2023-01-25T23:41:28.313Z,100284.19
2023-01-25T23:43:56.167Z,100281.13
2023-01-25T23:46:24.017Z,100271.22
2023-01-25T23:48:51.280Z,100270.03
2023-01-25T23:51:20.425Z,100277.91
2023-01-25T23:53:47.512Z,100248.81
2023-01-25T23:56:17.720Z,100271.09
2023-01-25T23:58:45.225Z,100260.59
